Time;durP1;ratioP1;P1;durP2;ratioP2;P2;SDS_P1;SDS_P2;PMS_P1;PMS_P2;Temp;Humidity;BMP_temperature;BMP_pressure;BME280_temperature;BME280_humidity;BME280_pressure;Samples;Min_cycle;Max_cycle;Signal;HPM_P1;HPM_P2
2022/08/03 00:01:57;;;;;;;10.13;4.97;;;19.40;99.90;;;;;;5026658;28;20022;-59
2022/08/03 00:04:23;;;;;;;12.73;4.65;;;19.40;99.90;;;;;;5027836;28;20405;-60
2022/08/03 00:06:49;;;;;;;7.88;4.57;;;19.30;99.90;;;;;;5026045;28;20113;-60
2022/08/03 00:09:14;;;;;;;6.47;4.40;;;19.30;99.90;;;;;;5027510;28;20163;-57
2022/08/03 00:11:40;;;;;;;9.23;4.85;;;19.30;99.90;;;;;;5028447;28;20118;-60
2022/08/03 00:14:06;;;;;;;7.20;4.47;;;19.30;99.90;;;;;;5026171;28;20399;-60
2022/08/03 00:16:32;;;;;;;6.63;4.30;;;19.20;99.90;;;;;;5029037;28;20053;-60
2022/08/03 00:18:58;;;;;;;10.13;4.47;;;19.20;99.90;;;;;;5031094;28;20061;-60
2022/08/03 00:21:23;;;;;;;9.55;4.95;;;19.10;99.90;;;;;;5025661;28;20294;-60
2022/08/03 00:23:49;;;;;;;7.93;4.28;;;19.10;99.90;;;;;;5031764;28;20033;-60
2022/08/03 00:26:15;;;;;;;7.30;4.80;;;19.10;99.90;;;;;;5031284;28;20043;-61
2022/08/03 00:28:40;;;;;;;9.40;4.50;;;19.10;99.90;;;;;;5026625;28;20029;-59
2022/08/03 00:31:06;;;;;;;7.60;5.13;;;19.10;99.90;;;;;;5028442;28;20061;-59
2022/08/03 00:33:32;;;;;;;10.30;4.82;;;19.10;99.90;;;;;;5031234;28;20029;-59
2022/08/03 00:35:57;;;;;;;6.85;4.32;;;19.00;99.90;;;;;;5025194;28;20040;-59
2022/08/03 00:38:23;;;;;;;10.30;4.72;;;19.00;99.90;;;;;;5030261;28;20041;-59
2022/08/03 00:40:48;;;;;;;10.70;4.70;;;19.00;99.90;;;;;;5028036;28;20041;-59
2022/08/03 00:43:14;;;;;;;12.32;5.15;;;19.00;99.90;;;;;;5029551;28;20037;-60
2022/08/03 00:45:41;;;;;;;7.60;4.53;;;18.90;99.90;;;;;;5032007;28;20458;-60
2022/08/03 00:48:09;;;;;;;6.53;4.32;;;18.90;99.90;;;;;;5028608;28;20052;-59
2022/08/03 00:50:38;;;;;;;6.88;4.35;;;18.90;99.90;;;;;;5029170;28;20060;-59
2022/08/03 00:53:05;;;;;;;11.57;5.57;;;18.80;99.90;;;;;;5026730;28;20025;-59
2022/08/03 00:58:18;;;;;;;11.52;5.10;;;18.80;99.90;;;;;;5123180;22;20042;-59
2022/08/03 01:00:44;;;;;;;5.65;4.53;;;18.80;99.90;;;;;;4997012;28;20026;-60
2022/08/03 01:03:10;;;;;;;12.63;5.30;;;18.70;99.90;;;;;;5005628;28;20151;-60
2022/08/03 01:05:52;;;;;;;8.77;4.82;;;18.70;99.90;;;;;;4988860;28;20139;-59
2022/08/03 01:08:59;;;;;;;6.32;4.63;;;18.60;99.90;;;;;;4986518;28;20026;-60
2022/08/03 01:11:45;;;;;;;9.35;4.53;;;18.60;99.90;;;;;;5027786;22;20613;-60
2022/08/03 01:14:19;;;;;;;7.03;4.93;;;18.50;99.90;;;;;;5038036;28;20013;-60
2022/08/03 01:17:18;;;;;;;7.57;5.18;;;18.50;99.90;;;;;;5048939;28;20100;-59
2022/08/03 01:20:06;;;;;;;9.40;5.00;;;18.50;99.90;;;;;;5047500;28;20017;-59
2022/08/03 01:23:17;;;;;;;8.63;5.10;;;18.50;99.90;;;;;;5027273;28;20029;-58
2022/08/03 01:25:51;;;;;;;8.65;5.30;;;18.40;99.90;;;;;;5033314;28;20017;-59
2022/08/03 01:28:31;;;;;;;8.25;5.43;;;18.40;99.90;;;;;;5024777;28;20020;-60
2022/08/03 01:31:04;;;;;;;7.40;5.07;;;18.40;99.90;;;;;;5027154;28;20051;-57
2022/08/03 01:33:45;;;;;;;10.68;5.47;;;18.40;99.90;;;;;;5024284;28;20021;-61
2022/08/03 01:36:14;;;;;;;8.68;5.22;;;18.30;99.90;;;;;;5026258;28;20041;-60
2022/08/03 01:38:52;;;;;;;9.38;4.78;;;18.30;99.90;;;;;;5020053;28;20018;-62
2022/08/03 01:41:21;;;;;;;13.82;5.25;;;18.30;99.90;;;;;;5026567;28;20014;-59
2022/08/03 01:43:49;;;;;;;7.80;4.90;;;18.20;99.90;;;;;;5027019;28;20109;-60
2022/08/03 01:46:16;;;;;;;7.78;5.60;;;18.20;99.90;;;;;;5029754;28;20374;-61
2022/08/03 01:48:44;;;;;;;9.70;5.40;;;18.20;99.90;;;;;;5028947;28;20071;-61
2022/08/03 01:51:12;;;;;;;9.43;5.82;;;18.20;99.90;;;;;;5021892;28;20103;-59
2022/08/03 01:53:41;;;;;;;9.30;5.88;;;18.20;99.90;;;;;;5014507;28;20121;-61
2022/08/03 01:56:08;;;;;;;8.07;5.25;;;18.10;99.90;;;;;;5019578;28;20364;-59
2022/08/03 01:58:35;;;;;;;8.77;5.20;;;18.20;99.90;;;;;;5022798;28;20097;-61
2022/08/03 02:01:03;;;;;;;7.60;5.47;;;18.10;99.90;;;;;;5022926;28;20033;-58
2022/08/03 02:03:32;;;;;;;12.02;5.80;;;18.10;99.90;;;;;;5029219;28;20026;-59
2022/08/03 02:05:59;;;;;;;10.18;5.93;;;18.10;99.90;;;;;;5021724;28;20042;-61
2022/08/03 02:08:26;;;;;;;8.38;4.85;;;18.10;99.90;;;;;;5025832;28;20025;-62
2022/08/03 02:10:55;;;;;;;9.13;5.22;;;18.10;99.90;;;;;;5023844;28;20053;-61
2022/08/03 02:13:22;;;;;;;7.40;4.93;;;18.00;99.90;;;;;;5021902;28;20108;-61
2022/08/03 02:15:48;;;;;;;11.45;5.88;;;17.90;99.90;;;;;;5026893;28;20078;-60
2022/08/03 02:18:14;;;;;;;7.05;4.40;;;17.90;99.90;;;;;;5030932;28;20033;-59
2022/08/03 02:20:42;;;;;;;7.80;5.10;;;17.90;99.90;;;;;;5026274;28;20021;-59
2022/08/03 02:23:08;;;;;;;9.05;5.13;;;17.90;99.90;;;;;;5026888;28;20044;-60
2022/08/03 02:25:41;;;;;;;9.68;5.40;;;17.90;99.90;;;;;;5031988;28;20100;-58
2022/08/03 02:28:15;;;;;;;6.57;4.80;;;17.80;99.90;;;;;;5027730;28;20036;-59
2022/08/03 02:30:44;;;;;;;9.27;6.07;;;17.90;99.90;;;;;;5023116;28;20040;-59
2022/08/03 02:33:25;;;;;;;9.43;5.15;;;17.90;99.90;;;;;;5026345;28;20386;-56
2022/08/03 02:35:52;;;;;;;15.27;5.13;;;17.80;99.90;;;;;;5026371;28;20383;-58
2022/08/03 02:38:22;;;;;;;7.00;5.10;;;17.80;99.90;;;;;;5022424;28;20188;-60
2022/08/03 02:40:49;;;;;;;15.00;5.72;;;17.80;99.90;;;;;;5024801;28;20033;-59
2022/08/03 02:43:19;;;;;;;9.60;5.40;;;17.80;99.90;;;;;;5028840;28;20371;-60
2022/08/03 02:45:47;;;;;;;7.15;4.85;;;17.80;99.90;;;;;;5020862;28;20376;-60
2022/08/03 02:48:17;;;;;;;9.43;5.90;;;17.80;99.90;;;;;;5012712;28;20025;-60
2022/08/03 02:50:44;;;;;;;7.90;5.03;;;17.70;99.90;;;;;;5025342;28;20378;-60
2022/08/03 02:53:10;;;;;;;10.98;4.93;;;17.70;99.90;;;;;;5025492;28;20041;-60
2022/08/03 02:55:37;;;;;;;7.78;5.60;;;17.80;99.90;;;;;;5023043;28;20421;-58
2022/08/03 02:58:05;;;;;;;10.45;5.30;;;17.80;99.90;;;;;;5024185;28;20013;-61
2022/08/03 03:00:33;;;;;;;6.55;5.15;;;17.70;99.90;;;;;;5024450;28;20048;-60
2022/08/03 03:03:01;;;;;;;9.90;5.47;;;17.70;99.90;;;;;;5023537;28;20393;-59
2022/08/03 03:05:27;;;;;;;5.63;4.43;;;17.70;99.90;;;;;;5022075;28;20032;-60
2022/08/03 03:07:54;;;;;;;7.55;5.32;;;17.70;99.90;;;;;;5027003;28;20032;-60
2022/08/03 03:10:21;;;;;;;7.07;4.75;;;17.70;99.90;;;;;;5032129;28;20108;-59
2022/08/03 03:12:50;;;;;;;8.23;5.10;;;17.70;99.90;;;;;;5030294;28;20018;-60
2022/08/03 03:15:15;;;;;;;7.50;4.95;;;17.70;99.90;;;;;;5028228;28;20021;-61
2022/08/03 03:17:42;;;;;;;6.40;4.78;;;17.70;99.90;;;;;;5029405;28;20032;-61
2022/08/03 03:20:08;;;;;;;11.93;5.75;;;17.60;99.90;;;;;;5032514;28;20032;-60
2022/08/03 03:22:34;;;;;;;7.30;4.95;;;17.60;99.90;;;;;;5025720;28;20021;-60
2022/08/03 03:25:00;;;;;;;8.32;5.65;;;17.60;99.90;;;;;;5031669;28;20030;-60
2022/08/03 03:27:27;;;;;;;7.13;5.22;;;17.60;99.90;;;;;;5030768;28;20097;-62
2022/08/03 03:29:53;;;;;;;7.85;5.00;;;17.60;99.90;;;;;;5032275;28;21365;-60
2022/08/03 03:32:19;;;;;;;8.90;5.70;;;17.60;99.90;;;;;;5030063;28;20037;-61
2022/08/03 03:34:45;;;;;;;8.70;5.40;;;17.60;99.90;;;;;;5029201;28;20482;-60
2022/08/03 03:37:11;;;;;;;9.50;5.07;;;17.60;99.90;;;;;;5027483;28;20026;-59
2022/08/03 03:39:36;;;;;;;8.27;5.25;;;17.50;99.90;;;;;;5021254;28;20025;-60
2022/08/03 03:42:03;;;;;;;6.15;5.32;;;17.50;99.90;;;;;;5029798;28;20030;-58
2022/08/03 03:44:29;;;;;;;10.25;5.72;;;17.50;99.90;;;;;;5022430;28;20071;-60
2022/08/03 03:46:58;;;;;;;8.05;5.78;;;17.50;99.90;;;;;;5027181;28;20411;-60
2022/08/03 03:49:24;;;;;;;7.60;5.50;;;17.50;99.90;;;;;;5028640;28;20029;-61
2022/08/03 03:51:54;;;;;;;7.03;5.32;;;17.50;99.90;;;;;;5031287;28;20022;-60
2022/08/03 03:54:20;;;;;;;7.18;5.55;;;17.50;99.90;;;;;;5033906;28;20025;-60
2022/08/03 03:56:45;;;;;;;7.80;4.97;;;17.50;99.90;;;;;;5034293;28;20021;-61
2022/08/03 03:59:11;;;;;;;6.07;4.85;;;17.50;99.90;;;;;;5028900;28;20057;-60
2022/08/03 04:01:38;;;;;;;7.95;6.00;;;17.50;99.90;;;;;;5028329;28;20033;-61
2022/08/03 04:12:21;;;;;;;7.72;5.22;;;17.40;99.90;;;;;;5033375;28;20057;-61
2022/08/03 04:14:48;;;;;;;7.57;4.78;;;17.30;99.90;;;;;;5034386;28;20060;-60
2022/08/03 04:17:15;;;;;;;7.78;5.20;;;17.40;99.90;;;;;;5031754;28;20072;-60
2022/08/03 04:19:51;;;;;;;8.20;5.50;;;17.40;99.90;;;;;;5033985;28;20022;-60
2022/08/03 04:22:19;;;;;;;7.05;5.18;;;17.40;99.90;;;;;;5027701;28;20028;-59
2022/08/03 04:24:50;;;;;;;9.13;5.22;;;17.40;99.90;;;;;;5034140;28;20033;-60
2022/08/03 04:27:20;;;;;;;8.57;5.05;;;17.40;99.90;;;;;;5032324;28;20513;-60
2022/08/03 04:29:50;;;;;;;8.43;4.68;;;17.40;99.90;;;;;;5032872;28;20486;-60
2022/08/03 04:32:16;;;;;;;8.07;5.70;;;17.40;99.90;;;;;;5029649;28;20018;-58
2022/08/03 04:34:42;;;;;;;8.52;5.68;;;17.40;99.90;;;;;;5033912;28;20025;-60
2022/08/03 04:37:17;;;;;;;7.68;4.95;;;17.40;99.90;;;;;;5033348;28;20029;-61
2022/08/03 04:39:47;;;;;;;9.98;6.00;;;17.60;99.90;;;;;;5028704;28;20053;-60
2022/08/03 04:42:15;;;;;;;9.80;5.78;;;17.60;99.90;;;;;;5031033;28;20030;-61
2022/08/03 04:44:42;;;;;;;8.50;5.38;;;17.60;99.90;;;;;;5033946;28;20439;-60
2022/08/03 04:47:08;;;;;;;6.80;5.35;;;17.60;99.90;;;;;;5030931;28;20104;-60
2022/08/03 04:49:37;;;;;;;9.32;6.38;;;17.70;99.90;;;;;;5029268;28;20097;-60
2022/08/03 04:52:04;;;;;;;12.02;5.57;;;17.70;99.90;;;;;;5006248;28;20474;-58
2022/08/03 04:54:30;;;;;;;7.05;5.85;;;17.80;99.90;;;;;;5025624;28;20045;-61
2022/08/03 04:56:55;;;;;;;6.53;5.18;;;17.80;99.90;;;;;;5025783;28;20025;-59
2022/08/03 04:59:21;;;;;;;6.18;4.72;;;17.80;99.90;;;;;;5028982;28;20025;-59
2022/08/03 05:01:46;;;;;;;6.68;5.15;;;17.90;99.90;;;;;;5027964;28;20485;-60
2022/08/03 05:04:12;;;;;;;6.95;5.35;;;17.90;99.90;;;;;;5028416;28;20479;-60
2022/08/03 05:06:37;;;;;;;7.97;5.15;;;18.00;99.90;;;;;;5028955;28;20026;-60
2022/08/03 05:09:03;;;;;;;7.13;4.85;;;18.00;99.90;;;;;;5030654;28;20049;-60
2022/08/03 05:11:29;;;;;;;10.93;5.30;;;18.00;99.90;;;;;;5030091;28;20124;-59
2022/08/03 05:13:54;;;;;;;6.63;5.15;;;18.00;99.90;;;;;;5026372;28;20037;-60
2022/08/03 05:16:20;;;;;;;9.90;5.20;;;18.00;99.90;;;;;;5029489;28;20036;-59
2022/08/03 05:18:45;;;;;;;7.28;5.20;;;18.00;99.90;;;;;;5027804;28;20493;-60
2022/08/03 05:21:15;;;;;;;6.90;5.15;;;18.10;99.90;;;;;;5031776;28;20095;-57
2022/08/03 05:23:41;;;;;;;15.52;6.13;;;18.10;99.90;;;;;;5033707;28;20095;-60
2022/08/03 05:26:07;;;;;;;6.85;4.78;;;18.20;99.90;;;;;;5033824;28;20471;-60
2022/08/03 05:28:32;;;;;;;8.05;4.90;;;18.20;99.90;;;;;;5027247;28;20066;-60
2022/08/03 05:30:59;;;;;;;6.93;4.65;;;18.20;99.90;;;;;;5028345;28;20060;-60
2022/08/03 05:33:25;;;;;;;6.88;4.93;;;18.30;99.90;;;;;;5030162;28;20104;-59
2022/08/03 05:35:50;;;;;;;7.57;5.40;;;18.40;99.90;;;;;;5029721;28;20029;-60
2022/08/03 05:38:16;;;;;;;7.53;5.15;;;18.40;99.90;;;;;;5033210;28;20692;-61
2022/08/03 05:40:41;;;;;;;11.55;5.35;;;18.50;99.90;;;;;;5031908;28;20374;-60
2022/08/03 05:43:07;;;;;;;5.70;4.38;;;18.50;99.90;;;;;;5028484;28;20722;-61
2022/08/03 05:45:32;;;;;;;10.13;5.35;;;18.60;99.90;;;;;;5009343;28;20013;-59
2022/08/03 05:47:58;;;;;;;8.38;5.60;;;18.70;99.90;;;;;;5027673;28;20044;-60
2022/08/03 05:50:23;;;;;;;7.50;5.00;;;18.80;99.90;;;;;;5025810;28;20067;-59
2022/08/03 05:52:49;;;;;;;9.18;5.20;;;18.90;99.90;;;;;;5025383;28;20055;-60
2022/08/03 05:55:15;;;;;;;10.10;5.13;;;19.00;99.90;;;;;;5027308;28;20391;-58
2022/08/03 05:57:42;;;;;;;5.82;4.60;;;19.00;99.90;;;;;;5025402;28;20129;-60
2022/08/03 06:00:09;;;;;;;6.57;4.25;;;19.10;99.90;;;;;;5027122;28;20237;-60
2022/08/03 06:02:35;;;;;;;8.82;4.95;;;19.20;99.90;;;;;;5025347;28;20048;-60
2022/08/03 06:05:01;;;;;;;10.43;5.18;;;19.30;99.90;;;;;;5031666;28;20018;-61
2022/08/03 06:07:26;;;;;;;7.60;5.07;;;19.30;99.90;;;;;;5029798;28;20025;-61
2022/08/03 06:09:53;;;;;;;7.50;4.30;;;19.40;99.90;;;;;;5022043;28;20030;-57
2022/08/03 06:12:19;;;;;;;6.85;4.50;;;19.50;99.90;;;;;;5026513;28;20429;-58
2022/08/03 06:14:44;;;;;;;8.20;4.45;;;19.50;99.90;;;;;;5030051;28;20104;-58
2022/08/03 06:17:10;;;;;;;6.25;4.90;;;19.60;99.90;;;;;;5026760;28;20029;-57
2022/08/03 06:19:35;;;;;;;8.02;5.55;;;19.70;99.90;;;;;;5031322;28;20475;-59
2022/08/03 06:22:01;;;;;;;8.35;5.30;;;19.70;99.90;;;;;;5023386;28;20030;-60
2022/08/03 06:24:26;;;;;;;10.68;5.45;;;19.90;99.90;;;;;;5029556;28;20018;-59
2022/08/03 06:26:52;;;;;;;5.88;4.65;;;19.90;99.90;;;;;;5024369;28;20033;-59
2022/08/03 06:29:17;;;;;;;9.43;4.88;;;20.00;99.90;;;;;;5023013;28;20067;-58
2022/08/03 06:31:43;;;;;;;5.72;4.57;;;20.10;99.90;;;;;;5021277;28;20815;-59
2022/08/03 06:34:09;;;;;;;7.03;4.63;;;20.20;99.90;;;;;;5024084;28;20427;-59
2022/08/03 06:36:34;;;;;;;8.77;5.47;;;20.30;99.90;;;;;;5024862;28;20056;-59
2022/08/03 06:39:01;;;;;;;13.73;5.63;;;20.40;99.90;;;;;;5022888;28;20100;-59
2022/08/03 06:41:27;;;;;;;6.65;5.25;;;20.50;99.90;;;;;;5011605;28;20033;-60
2022/08/03 06:43:53;;;;;;;11.75;5.40;;;20.60;99.90;;;;;;5030512;28;20489;-60
2022/08/03 06:46:19;;;;;;;12.90;6.00;;;20.70;99.90;;;;;;5031528;28;20086;-60
2022/08/03 06:48:44;;;;;;;5.72;5.10;;;20.80;99.90;;;;;;5036920;28;20479;-58
2022/08/03 06:51:10;;;;;;;5.72;4.25;;;21.00;99.90;;;;;;5029732;28;20499;-60
2022/08/03 06:53:35;;;;;;;7.32;5.18;;;21.00;99.90;;;;;;5033406;28;20121;-60
2022/08/03 06:56:03;;;;;;;9.18;5.50;;;21.10;99.90;;;;;;5031484;28;20037;-60
2022/08/03 06:58:28;;;;;;;7.15;4.97;;;21.10;99.90;;;;;;5029501;28;20053;-60
2022/08/03 07:00:54;;;;;;;6.45;4.82;;;21.30;99.90;;;;;;5030731;28;20056;-61
2022/08/03 07:03:19;;;;;;;9.85;5.25;;;21.30;99.90;;;;;;5034301;28;20017;-61
2022/08/03 07:05:46;;;;;;;8.95;5.75;;;21.30;99.90;;;;;;5029637;28;20076;-60
2022/08/03 07:08:12;;;;;;;8.70;5.38;;;21.40;99.90;;;;;;5033409;28;20025;-60
2022/08/03 07:10:37;;;;;;;10.35;6.00;;;21.50;99.90;;;;;;5036442;28;20037;-60
2022/08/03 07:13:05;;;;;;;7.95;5.10;;;21.60;99.90;;;;;;5033670;28;20055;-60
2022/08/03 07:15:31;;;;;;;6.88;5.35;;;21.70;99.90;;;;;;5053930;22;20041;-60
2022/08/03 07:17:56;;;;;;;8.70;5.88;;;21.80;99.90;;;;;;5033993;28;20047;-60
2022/08/03 07:20:22;;;;;;;8.27;5.93;;;21.90;99.90;;;;;;5034802;28;20200;-61
2022/08/03 07:22:48;;;;;;;7.78;5.50;;;22.00;99.90;;;;;;5033366;28;20032;-60
2022/08/03 07:25:14;;;;;;;8.40;5.18;;;22.10;99.90;;;;;;5035756;28;20025;-60
2022/08/03 07:27:47;;;;;;;9.23;5.32;;;22.30;99.90;;;;;;5015045;28;20022;-60
2022/08/03 07:30:14;;;;;;;10.52;5.65;;;22.40;99.90;;;;;;5011977;28;20026;-59
2022/08/03 07:32:40;;;;;;;7.85;4.68;;;22.50;99.90;;;;;;5014355;28;20387;-60
2022/08/03 07:35:07;;;;;;;5.97;4.65;;;22.60;99.90;;;;;;5017545;28;20018;-60
2022/08/03 07:37:33;;;;;;;14.35;5.20;;;22.70;99.90;;;;;;5015924;28;20021;-62
2022/08/03 07:40:00;;;;;;;9.32;4.65;;;22.80;99.90;;;;;;5010731;28;20080;-62
2022/08/03 07:42:27;;;;;;;10.63;4.28;;;22.90;99.90;;;;;;5024759;28;20084;-62
2022/08/03 07:44:53;;;;;;;7.05;4.38;;;23.00;99.90;;;;;;5021145;28;20013;-60
2022/08/03 07:47:24;;;;;;;6.40;3.83;;;23.20;99.90;;;;;;5016908;28;20108;-60
2022/08/03 07:49:50;;;;;;;9.63;3.85;;;23.30;99.90;;;;;;5013280;28;20014;-56
2022/08/03 07:55:00;;;;;;;11.10;4.35;;;23.50;99.90;;;;;;5022482;28;20114;-57
2022/08/03 07:57:25;;;;;;;6.28;3.63;;;23.60;99.90;;;;;;5024160;28;20088;-61
2022/08/03 07:59:51;;;;;;;6.07;3.40;;;23.70;99.90;;;;;;5020929;28;20068;-59
2022/08/03 08:02:16;;;;;;;8.18;4.35;;;23.70;99.90;;;;;;5016317;28;20022;-59
2022/08/03 08:04:42;;;;;;;8.82;4.03;;;23.80;99.90;;;;;;5010489;28;20117;-60
2022/08/03 08:07:08;;;;;;;7.57;4.38;;;23.90;99.90;;;;;;5010807;28;20029;-62
2022/08/03 08:09:33;;;;;;;7.07;3.90;;;23.90;99.90;;;;;;5014657;28;20022;-58
2022/08/03 08:11:59;;;;;;;8.80;3.42;;;24.10;99.90;;;;;;5013547;28;20034;-61
2022/08/03 08:14:25;;;;;;;10.15;3.60;;;24.20;99.90;;;;;;5013268;28;20026;-60
2022/08/03 08:16:50;;;;;;;7.70;3.15;;;24.30;99.90;;;;;;5008475;28;20030;-61
2022/08/03 08:19:16;;;;;;;3.50;2.60;;;24.40;99.90;;;;;;5009924;28;20020;-60
2022/08/03 08:21:42;;;;;;;10.35;4.00;;;24.60;99.90;;;;;;5008744;28;20061;-58
2022/08/03 08:24:09;;;;;;;3.97;2.80;;;24.70;99.90;;;;;;5020115;28;20491;-57
2022/08/03 08:26:35;;;;;;;7.72;4.00;;;24.90;99.90;;;;;;5015697;28;20549;-58
2022/08/03 08:29:01;;;;;;;9.45;3.17;;;25.00;99.90;;;;;;4994669;28;20026;-59
2022/08/03 08:31:26;;;;;;;7.63;3.92;;;25.00;99.90;;;;;;5011053;28;20525;-54
2022/08/03 08:33:52;;;;;;;12.10;3.50;;;25.10;99.90;;;;;;5020932;28;20065;-56
2022/08/03 08:36:18;;;;;;;6.15;3.35;;;25.20;99.90;;;;;;5019045;28;20049;-55
2022/08/03 08:38:43;;;;;;;5.22;3.17;;;25.40;99.90;;;;;;5010869;28;20030;-61
2022/08/03 08:41:11;;;;;;;6.82;3.50;;;25.40;99.90;;;;;;5015370;28;20026;-57
2022/08/03 08:43:37;;;;;;;4.82;2.55;;;25.60;99.90;;;;;;5013504;28;20463;-57
2022/08/03 08:46:04;;;;;;;7.78;2.55;;;25.70;99.90;;;;;;5016714;28;20028;-59
2022/08/03 08:48:30;;;;;;;12.43;2.72;;;25.80;99.90;;;;;;4994225;28;20032;-58
2022/08/03 08:50:57;;;;;;;4.88;2.50;;;26.00;99.90;;;;;;5004289;28;20045;-56
2022/08/03 08:53:27;;;;;;;8.60;3.30;;;26.10;99.90;;;;;;5011651;28;20057;-58
2022/08/03 08:55:58;;;;;;;7.15;2.25;;;26.20;99.90;;;;;;5012010;28;20053;-58
2022/08/03 08:58:27;;;;;;;5.07;2.20;;;26.30;99.90;;;;;;5019796;28;20018;-57
2022/08/03 09:00:52;;;;;;;5.00;2.45;;;26.50;99.90;;;;;;5012866;28;20676;-56
2022/08/03 09:03:18;;;;;;;5.97;2.25;;;26.60;99.90;;;;;;5011770;28;20025;-58
2022/08/03 09:05:44;;;;;;;6.13;2.53;;;26.70;99.90;;;;;;5009967;28;20591;-57
2022/08/03 09:08:10;;;;;;;4.80;2.50;;;26.80;99.90;;;;;;5011566;28;20105;-59
2022/08/03 09:10:35;;;;;;;9.13;2.65;;;26.90;99.90;;;;;;5016244;28;20021;-59
2022/08/03 09:13:01;;;;;;;4.47;2.05;;;27.10;99.90;;;;;;5013008;28;20125;-58
2022/08/03 09:15:32;;;;;;;3.40;2.05;;;27.20;99.90;;;;;;5007798;28;20078;-58
2022/08/03 09:18:00;;;;;;;6.07;2.22;;;27.30;99.90;;;;;;5003869;28;20034;-58
2022/08/03 09:20:31;;;;;;;3.90;2.38;;;27.40;99.90;;;;;;5007948;28;20120;-57
2022/08/03 09:22:58;;;;;;;7.05;2.55;;;27.40;99.90;;;;;;5011604;28;20471;-54
2022/08/03 09:25:31;;;;;;;13.40;2.90;;;27.50;99.90;;;;;;5018891;28;20426;-56
2022/08/03 09:28:14;;;;;;;14.15;2.58;;;27.70;99.90;;;;;;5006351;28;20014;-60
2022/08/03 09:30:44;;;;;;;2.83;2.05;;;27.90;99.90;;;;;;5011816;28;20399;-59
2022/08/03 09:33:15;;;;;;;10.95;2.92;;;28.00;99.90;;;;;;5012936;28;20032;-58
2022/08/03 09:35:42;;;;;;;8.75;2.65;;;28.20;99.90;;;;;;5012571;28;20026;-57
2022/08/03 09:38:23;;;;;;;5.53;2.08;;;28.40;99.90;;;;;;4989728;28;20018;-62
2022/08/03 09:40:49;;;;;;;6.05;2.42;;;28.50;99.90;;;;;;5005674;28;20018;-61
2022/08/03 09:43:15;;;;;;;2.67;1.80;;;28.50;99.90;;;;;;5014212;28;20017;-59
2022/08/03 09:45:42;;;;;;;4.60;2.08;;;28.50;99.90;;;;;;5009316;28;20037;-58
2022/08/03 09:48:29;;;;;;;7.85;1.90;;;28.50;99.90;;;;;;5012320;28;20053;-58
2022/08/03 09:50:59;;;;;;;5.07;1.60;;;28.70;99.90;;;;;;4987149;28;20472;-58
2022/08/03 09:53:26;;;;;;;8.73;2.17;;;28.90;99.90;;;;;;5003905;28;20022;-57
2022/08/03 09:55:58;;;;;;;4.45;1.55;;;29.10;99.90;;;;;;5003686;28;20025;-58
2022/08/03 09:58:26;;;;;;;5.53;1.80;;;29.20;99.90;;;;;;5011369;28;20044;-58
2022/08/03 10:00:59;;;;;;;4.40;1.45;;;29.30;99.90;;;;;;5002738;28;20041;-58
2022/08/03 10:03:27;;;;;;;4.70;1.23;;;29.50;99.90;;;;;;5004044;28;20830;-56
2022/08/03 10:05:54;;;;;;;3.72;1.33;;;29.40;99.90;;;;;;5006649;28;20025;-57
2022/08/03 10:08:20;;;;;;;3.33;1.10;;;29.50;99.90;;;;;;5001798;28;20057;-56
2022/08/03 10:10:48;;;;;;;6.00;2.13;;;29.70;99.90;;;;;;5009119;28;20058;-57
2022/08/03 10:13:17;;;;;;;4.20;1.60;;;29.80;99.90;;;;;;5007502;28;20084;-56
2022/08/03 10:15:43;;;;;;;3.90;1.40;;;30.10;99.90;;;;;;5001955;28;20080;-55
2022/08/03 10:18:09;;;;;;;5.13;1.70;;;30.40;99.90;;;;;;5003376;28;20061;-58
2022/08/03 10:20:51;;;;;;;6.18;1.65;;;30.50;99.90;;;;;;4999192;28;20025;-57
2022/08/03 10:23:17;;;;;;;4.07;1.95;;;30.50;99.90;;;;;;5005893;28;20510;-55
2022/08/03 10:25:47;;;;;;;7.15;1.70;;;30.80;99.90;;;;;;5006388;28;20128;-57
2022/08/03 10:28:17;;;;;;;5.60;2.05;;;30.90;99.90;;;;;;4991564;28;20383;-58
2022/08/03 10:30:47;;;;;;;6.60;1.65;;;31.00;99.90;;;;;;5007953;28;20026;-61
2022/08/03 10:33:17;;;;;;;7.57;1.98;;;31.10;99.90;;;;;;5006307;28;20029;-59
2022/08/03 10:35:47;;;;;;;5.40;2.05;;;31.20;99.90;;;;;;5007695;28;20071;-55
2022/08/03 10:38:18;;;;;;;10.15;1.42;;;30.80;99.90;;;;;;5010975;28;20050;-62
2022/08/03 10:40:43;;;;;;;5.47;1.50;;;30.80;99.90;;;;;;5004900;28;20610;-60
2022/08/03 10:43:17;;;;;;;5.95;1.70;;;31.20;99.90;;;;;;5008537;28;20030;-59
2022/08/03 10:45:45;;;;;;;3.13;1.75;;;31.10;99.90;;;;;;5005933;28;20024;-61
2022/08/03 10:48:11;;;;;;;5.95;1.70;;;31.20;99.90;;;;;;5018897;28;20037;-57
2022/08/03 10:50:38;;;;;;;12.15;3.15;;;31.40;99.90;;;;;;5007987;28;20044;-59
2022/08/03 10:53:05;;;;;;;5.60;1.90;;;31.70;99.90;;;;;;5011260;28;20426;-61
2022/08/03 10:58:42;;;;;;;4.80;1.95;;;32.00;99.90;;;;;;5004783;28;20101;-56
2022/08/03 11:01:09;;;;;;;4.88;2.63;;;32.00;99.90;;;;;;5015060;28;20037;-59
2022/08/03 11:04:07;;;;;;;4.03;1.65;;;32.10;99.90;;;;;;5008800;28;20044;-60
2022/08/03 11:06:32;;;;;;;8.95;1.80;;;32.30;99.00;;;;;;4977676;28;20117;-57
2022/08/03 11:09:15;;;;;;;5.80;1.90;;;32.60;98.60;;;;;;5019511;28;20105;-61
2022/08/03 11:11:42;;;;;;;5.47;1.58;;;32.60;98.30;;;;;;5006479;28;20112;-56
2022/08/03 11:14:13;;;;;;;4.93;1.55;;;32.50;98.20;;;;;;4996196;28;20025;-61
2022/08/03 11:16:48;;;;;;;3.35;1.67;;;32.50;97.00;;;;;;5010881;28;20045;-63
2022/08/03 11:19:16;;;;;;;6.35;1.95;;;32.60;96.90;;;;;;5007649;28;20022;-61
2022/08/03 11:21:48;;;;;;;7.60;1.92;;;32.50;97.20;;;;;;5006055;28;20018;-61
2022/08/03 11:24:35;;;;;;;3.90;1.80;;;32.80;96.60;;;;;;5004561;28;20028;-62
2022/08/03 11:27:17;;;;;;;3.28;1.88;;;33.00;96.40;;;;;;4999708;28;20544;-60
2022/08/03 11:29:56;;;;;;;3.08;1.60;;;33.10;95.80;;;;;;5007542;28;20025;-62
2022/08/03 11:32:37;;;;;;;3.17;1.83;;;33.20;96.10;;;;;;5010936;28;20017;-55
2022/08/03 11:35:24;;;;;;;5.05;1.42;;;33.30;95.70;;;;;;5013009;28;20026;-59
2022/08/03 11:37:53;;;;;;;7.30;1.75;;;33.70;96.50;;;;;;5012158;28;20022;-61
2022/08/03 11:40:43;;;;;;;4.95;1.52;;;33.80;94.60;;;;;;5011813;28;20105;-58
2022/08/03 11:43:28;;;;;;;8.27;1.80;;;33.60;94.20;;;;;;5015531;28;20025;-61
2022/08/03 11:46:00;;;;;;;4.65;1.80;;;33.30;94.10;;;;;;5010426;28;20029;-58
2022/08/03 11:48:43;;;;;;;5.72;1.83;;;33.00;94.10;;;;;;5013160;28;20383;-62
2022/08/03 11:51:24;;;;;;;6.05;1.98;;;33.60;95.00;;;;;;5011139;28;20042;-57
2022/08/03 11:53:58;;;;;;;4.28;2.20;;;33.70;93.30;;;;;;5013314;28;20017;-57
2022/08/03 11:56:24;;;;;;;8.52;2.13;;;33.70;93.30;;;;;;5009302;28;20041;-62
2022/08/03 11:58:52;;;;;;;5.18;1.90;;;33.70;93.10;;;;;;5013357;28;20060;-60
2022/08/03 12:01:19;;;;;;;4.95;1.77;;;33.90;93.20;;;;;;5015801;28;20394;-60
2022/08/03 12:03:46;;;;;;;6.35;1.65;;;33.90;92.90;;;;;;5014024;28;20519;-59
2022/08/03 12:06:14;;;;;;;2.63;1.95;;;34.00;92.10;;;;;;5012493;28;20041;-60
2022/08/03 12:08:41;;;;;;;13.52;2.38;;;34.00;92.00;;;;;;4999968;28;20025;-56
2022/08/03 12:11:09;;;;;;;6.40;1.60;;;33.90;91.60;;;;;;5013541;28;20069;-61
2022/08/03 12:13:53;;;;;;;8.38;1.30;;;34.30;91.20;;;;;;5019363;28;20025;-57
2022/08/03 12:16:21;;;;;;;3.47;1.65;;;34.60;91.00;;;;;;5016383;28;20113;-63
2022/08/03 12:19:01;;;;;;;8.45;2.60;;;34.90;90.70;;;;;;5016109;28;20017;-62
2022/08/03 12:21:28;;;;;;;10.50;2.58;;;35.20;90.40;;;;;;5011535;28;20022;-61
2022/08/03 12:24:02;;;;;;;7.85;2.08;;;35.30;90.70;;;;;;5018495;28;20470;-61
2022/08/03 12:26:28;;;;;;;;;;;34.70;90.30;;;;;;5016056;28;20025;-61
2022/08/03 12:28:54;;;;;;;5.05;1.80;;;34.20;89.90;;;;;;5011217;28;19909;-62
2022/08/03 12:31:20;;;;;;;3.92;1.80;;;34.20;91.40;;;;;;5004504;28;20030;-61
2022/08/03 12:34:01;;;;;;;5.30;1.88;;;34.60;90.90;;;;;;5013392;28;20036;-60
2022/08/03 12:36:29;;;;;;;3.15;1.85;;;35.00;89.10;;;;;;5008432;28;20105;-61
2022/08/03 12:38:57;;;;;;;2.47;1.40;;;35.10;89.10;;;;;;5013169;28;20037;-59
2022/08/03 12:41:34;;;;;;;5.03;1.50;;;35.00;90.90;;;;;;5008997;28;20092;-59
2022/08/03 12:44:04;;;;;;;5.65;1.65;;;35.60;87.80;;;;;;5008298;28;20058;-63
2022/08/03 12:46:34;;;;;;;7.15;1.40;;;35.40;86.80;;;;;;4992325;28;20022;-64
2022/08/03 12:49:02;;;;;;;2.90;1.50;;;35.70;86.10;;;;;;5012636;28;20022;-61
2022/08/03 12:51:34;;;;;;;5.43;1.70;;;36.10;84.40;;;;;;5013202;28;20037;-62
2022/08/03 12:54:01;;;;;;;4.45;1.55;;;35.90;84.30;;;;;;5013648;28;20033;-62
2022/08/03 12:56:26;;;;;;;6.78;2.30;;;35.70;83.50;;;;;;5020123;28;20041;-62
2022/08/03 12:58:52;;;;;;;3.47;1.67;;;35.40;84.00;;;;;;5019845;28;20021;-59
2022/08/03 13:01:21;;;;;;;4.45;1.30;;;35.20;83.90;;;;;;5027876;28;20064;-63
2022/08/03 13:03:48;;;;;;;3.88;1.55;;;35.50;83.90;;;;;;5021290;28;20017;-61
2022/08/03 13:06:15;;;;;;;5.30;1.48;;;36.00;83.80;;;;;;5027076;28;20017;-63
2022/08/03 13:08:43;;;;;;;3.38;1.23;;;36.30;83.60;;;;;;5032655;28;20024;-64
2022/08/03 13:11:19;;;;;;;2.25;1.60;;;36.10;81.50;;;;;;5028902;28;20025;-62